Time;durP1;ratioP1;P1;durP2;ratioP2;P2;SDS_P1;SDS_P2;PMS_P1;PMS_P2;Temp;Humidity;BMP_temperature;BMP_pressure;BME280_temperature;BME280_humidity;BME280_pressure;Samples;Min_cycle;Max_cycle;Signal;HPM_P1;HPM_P2
2023/10/02 00:05:40;;;;;;;6.45;2.35;;;15.60;94.50;;;;;;4942515;29;20143;-90
2023/10/02 00:08:00;;;;;;;7.93;2.88;;;15.60;94.50;;;;;;4958530;29;20089;-90
2023/10/02 00:10:30;;;;;;;6.07;2.65;;;15.60;94.60;;;;;;4942547;29;20055;-91
2023/10/02 00:13:00;;;;;;;6.88;2.75;;;15.60;94.60;;;;;;4930956;29;20103;-90
2023/10/02 00:15:27;;;;;;;6.82;3.10;;;15.50;94.60;;;;;;4923765;29;20102;-90
2023/10/02 00:17:57;;;;;;;7.15;3.30;;;15.50;94.60;;;;;;4916102;29;20074;-90
2023/10/02 00:20:26;;;;;;;6.07;2.42;;;15.50;94.60;;;;;;4940321;29;20052;-90
2023/10/02 00:22:55;;;;;;;7.28;3.13;;;15.50;94.60;;;;;;4927185;29;20486;-91
2023/10/02 00:25:27;;;;;;;6.22;2.65;;;15.50;94.60;;;;;;4940345;29;20047;-90
2023/10/02 00:27:55;;;;;;;6.30;2.63;;;15.50;94.70;;;;;;4908164;29;20490;-90
2023/10/02 00:30:36;;;;;;;7.55;2.80;;;15.50;94.70;;;;;;4939217;29;20110;-91
2023/10/02 00:33:08;;;;;;;7.05;2.50;;;15.40;94.70;;;;;;4939072;29;20407;-90
2023/10/02 00:35:50;;;;;;;7.32;2.90;;;15.40;94.70;;;;;;4939612;29;20055;-91
2023/10/02 00:38:18;;;;;;;6.00;2.03;;;15.40;94.70;;;;;;4939019;29;20078;-91
2023/10/02 00:40:45;;;;;;;6.28;2.72;;;15.40;94.80;;;;;;4923122;29;20090;-91
2023/10/02 00:46:01;;;;;;;5.25;2.35;;;15.40;94.80;;;;;;4945158;29;20043;-90
2023/10/02 00:48:28;;;;;;;5.85;2.63;;;15.30;94.80;;;;;;4942172;29;20054;-91
2023/10/02 00:51:05;;;;;;;7.70;2.80;;;15.30;94.80;;;;;;4942153;29;20122;-91
2023/10/02 00:53:40;;;;;;;6.78;2.78;;;15.30;94.80;;;;;;4926463;29;20082;-91
2023/10/02 00:56:28;;;;;;;6.05;2.67;;;15.30;94.80;;;;;;4941893;29;20047;-91
2023/10/02 00:59:00;;;;;;;7.10;2.58;;;15.30;94.80;;;;;;4958151;29;20409;-91
2023/10/02 01:01:31;;;;;;;6.50;2.60;;;15.30;94.90;;;;;;4942026;29;20796;-91
2023/10/02 01:04:09;;;;;;;4.22;1.65;;;15.20;94.80;;;;;;4942020;29;20090;-91
2023/10/02 01:07:24;;;;;;;7.07;2.95;;;15.30;94.90;;;;;;4941665;29;20079;-90
2023/10/02 01:09:27;;;;;;;6.68;2.67;;;15.20;94.90;;;;;;4938090;29;20048;-90
2023/10/02 01:11:58;;;;;;;5.82;2.30;;;15.20;94.90;;;;;;4941115;29;20047;-91
2023/10/02 01:17:16;;;;;;;5.20;2.53;;;15.20;94.90;;;;;;4941301;29;20065;-90
2023/10/02 01:19:54;;;;;;;5.85;2.22;;;15.20;95.20;;;;;;4941461;29;20055;-90
2023/10/02 01:22:36;;;;;;;5.85;2.33;;;15.20;94.90;;;;;;4941658;29;20051;-91
2023/10/02 01:25:14;;;;;;;8.90;2.65;;;15.30;94.90;;;;;;4941347;29;20585;-91
2023/10/02 01:27:50;;;;;;;5.50;2.30;;;15.20;94.80;;;;;;4942089;29;20077;-90
2023/10/02 01:30:23;;;;;;;5.50;2.45;;;15.30;94.80;;;;;;4925609;29;20177;-91
2023/10/02 01:33:11;;;;;;;5.97;2.50;;;15.30;94.90;;;;;;4941732;29;20134;-91
2023/10/02 01:35:46;;;;;;;7.03;2.50;;;15.30;94.80;;;;;;4927207;29;20047;-90
2023/10/02 01:38:21;;;;;;;6.80;2.60;;;15.20;94.80;;;;;;4940990;29;20094;-90
2023/10/02 01:43:44;;;;;;;6.28;2.20;;;15.20;94.80;;;;;;4941135;29;20106;-90
2023/10/02 01:46:17;;;;;;;6.95;2.50;;;15.20;94.90;;;;;;4941247;29;20494;-91
2023/10/02 01:48:48;;;;;;;8.23;2.63;;;15.20;94.90;;;;;;4925373;29;20058;-90
2023/10/02 01:51:25;;;;;;;5.85;2.58;;;15.20;94.90;;;;;;4925593;29;20047;-91
2023/10/02 01:53:56;;;;;;;6.53;2.05;;;15.20;94.90;;;;;;4940954;29;20597;-90
2023/10/02 01:56:26;;;;;;;6.50;2.83;;;15.20;94.90;;;;;;4941078;29;20043;-91
2023/10/02 01:58:54;;;;;;;7.88;2.92;;;15.20;94.90;;;;;;4940693;29;20070;-90
2023/10/02 02:01:22;;;;;;;5.30;2.05;;;15.20;94.90;;;;;;4940554;29;20098;-90
2023/10/02 02:03:51;;;;;;;6.30;2.45;;;15.20;94.90;;;;;;4941127;29;20525;-90
2023/10/02 02:06:22;;;;;;;5.72;2.38;;;15.20;94.90;;;;;;4924973;29;20043;-90
2023/10/02 02:08:58;;;;;;;5.90;2.40;;;15.20;94.90;;;;;;4925002;29;20457;-91
2023/10/02 02:11:29;;;;;;;5.55;2.38;;;15.20;94.90;;;;;;4940468;29;20094;-91
2023/10/02 02:14:03;;;;;;;5.65;3.03;;;15.20;94.90;;;;;;4925363;29;20434;-90
2023/10/02 02:16:33;;;;;;;6.38;2.72;;;15.20;95.00;;;;;;4940132;29;20051;-90
2023/10/02 02:19:07;;;;;;;6.78;2.15;;;15.10;94.90;;;;;;4924479;29;20134;-89
2023/10/02 02:21:35;;;;;;;6.25;2.70;;;15.20;95.00;;;;;;4925176;29;20576;-90
2023/10/02 02:24:08;;;;;;;8.10;2.60;;;15.10;95.00;;;;;;4905394;29;20138;-90
2023/10/02 02:26:39;;;;;;;5.13;2.28;;;15.10;95.00;;;;;;4906045;29;20147;-89
2023/10/02 02:29:28;;;;;;;7.72;2.72;;;15.10;95.00;;;;;;4933536;29;20047;-90
2023/10/02 02:32:03;;;;;;;6.07;2.08;;;15.10;95.10;;;;;;4937374;29;20048;-89
2023/10/02 02:34:30;;;;;;;6.45;2.50;;;15.10;95.10;;;;;;4940483;29;20047;-90
2023/10/02 02:36:59;;;;;;;5.15;2.10;;;15.00;95.00;;;;;;4940228;29;20070;-91
2023/10/02 02:39:27;;;;;;;6.40;2.60;;;15.00;95.10;;;;;;4939906;29;20047;-90
2023/10/02 02:42:09;;;;;;;5.75;2.08;;;15.00;95.10;;;;;;4924211;29;20105;-90
2023/10/02 02:44:49;;;;;;;5.15;2.22;;;15.00;95.10;;;;;;4939999;29;20066;-89
2023/10/02 02:47:20;;;;;;;5.65;2.28;;;15.00;95.10;;;;;;4940127;29;20039;-89
2023/10/02 02:49:52;;;;;;;5.82;2.13;;;14.90;95.10;;;;;;4940044;29;20043;-89
2023/10/02 02:52:33;;;;;;;6.75;2.80;;;14.90;95.10;;;;;;4929887;29;20047;-89
2023/10/02 02:55:12;;;;;;;5.85;1.90;;;14.90;95.20;;;;;;4905240;29;20135;-90
2023/10/02 02:57:45;;;;;;;5.57;2.40;;;14.90;95.20;;;;;;4905325;29;20043;-90
2023/10/02 03:00:25;;;;;;;6.15;2.25;;;14.90;95.20;;;;;;4905663;29;20066;-90
2023/10/02 03:02:53;;;;;;;5.30;2.10;;;14.80;95.20;;;;;;4890704;29;20043;-90
2023/10/02 03:05:37;;;;;;;5.97;2.17;;;14.80;95.20;;;;;;4939673;29;20055;-90
2023/10/02 03:08:05;;;;;;;5.68;2.17;;;14.80;95.20;;;;;;4939954;29;20560;-90
2023/10/02 03:10:40;;;;;;;5.03;1.85;;;14.80;95.30;;;;;;4939128;29;20051;-90
2023/10/02 03:13:15;;;;;;;6.68;2.33;;;14.80;95.20;;;;;;4924165;29;20058;-90
2023/10/02 03:15:46;;;;;;;5.93;2.28;;;14.80;95.20;;;;;;4939608;29;20462;-90
2023/10/02 03:18:30;;;;;;;6.00;2.58;;;14.80;95.30;;;;;;4924466;29;20062;-90
2023/10/02 03:23:38;;;;;;;6.18;2.33;;;14.80;95.30;;;;;;4939505;29;20508;-90
2023/10/02 03:26:27;;;;;;;4.72;2.00;;;14.70;95.30;;;;;;4939670;29;20051;-90
2023/10/02 03:29:02;;;;;;;6.85;2.10;;;14.80;95.30;;;;;;4942149;29;20051;-90
2023/10/02 03:31:44;;;;;;;5.75;2.00;;;14.70;95.20;;;;;;4919083;29;20052;-90
2023/10/02 03:34:32;;;;;;;5.90;2.25;;;14.70;95.30;;;;;;4935812;29;20048;-90
2023/10/02 03:37:00;;;;;;;5.18;1.95;;;14.70;95.30;;;;;;4937352;29;20075;-90
2023/10/02 03:42:22;;;;;;;5.50;2.28;;;14.70;95.30;;;;;;4965124;29;20430;-90
2023/10/02 03:44:50;;;;;;;5.75;2.05;;;14.70;95.30;;;;;;4941444;29;20099;-90
2023/10/02 03:47:20;;;;;;;4.43;1.95;;;14.60;95.30;;;;;;4942088;29;20419;-90
2023/10/02 03:49:47;;;;;;;6.80;2.30;;;14.70;95.30;;;;;;4943558;29;20078;-90
2023/10/02 03:52:23;;;;;;;8.45;2.70;;;14.70;95.30;;;;;;4914635;29;20072;-90
2023/10/02 03:54:54;;;;;;;4.90;1.90;;;14.60;95.30;;;;;;4911761;29;20523;-90
2023/10/02 03:57:47;;;;;;;5.95;2.08;;;14.60;95.60;;;;;;4927813;29;20047;-90
2023/10/02 04:00:23;;;;;;;5.95;2.17;;;14.60;95.40;;;;;;4942980;29;20047;-90
2023/10/02 04:02:53;;;;;;;6.10;1.98;;;14.60;95.40;;;;;;4942950;29;20490;-91
2023/10/02 04:05:32;;;;;;;5.30;2.15;;;14.60;95.40;;;;;;4927264;29;20043;-90
2023/10/02 04:08:36;;;;;;;6.30;2.38;;;14.50;95.40;;;;;;4944004;29;20043;-90
2023/10/02 04:11:03;;;;;;;5.72;1.90;;;14.50;95.40;;;;;;4942464;29;20055;-90
2023/10/02 04:13:39;;;;;;;4.95;1.80;;;14.50;95.40;;;;;;4942397;29;20047;-90
2023/10/02 04:19:02;;;;;;;6.10;2.30;;;14.50;95.50;;;;;;4937560;29;20071;-90
2023/10/02 04:21:33;;;;;;;4.70;1.83;;;14.50;95.50;;;;;;4907804;29;20044;-90
2023/10/02 04:24:04;;;;;;;6.43;2.35;;;14.40;95.50;;;;;;4908097;29;20047;-90
2023/10/02 04:26:33;;;;;;;7.35;2.72;;;14.40;95.50;;;;;;4908258;29;20044;-91
2023/10/02 04:32:11;;;;;;;5.90;2.38;;;14.40;95.50;;;;;;4923376;29;20462;-91
2023/10/02 04:34:36;;;;;;;6.38;2.00;;;14.40;95.50;;;;;;4923188;29;20396;-90
2023/10/02 04:37:22;;;;;;;4.53;1.80;;;14.40;95.50;;;;;;4923033;29;20048;-90
2023/10/02 04:39:53;;;;;;;5.60;2.03;;;14.40;95.50;;;;;;4896416;29;20139;-90
2023/10/02 04:42:57;;;;;;;6.90;2.28;;;14.40;95.50;;;;;;4907377;29;20048;-90
2023/10/02 04:45:25;;;;;;;6.28;1.80;;;14.40;95.50;;;;;;4922448;29;20052;-90
2023/10/02 04:47:58;;;;;;;4.55;1.75;;;14.40;95.50;;;;;;4922745;29;20044;-90
2023/10/02 04:52:58;;;;;;;5.32;2.00;;;14.30;95.70;;;;;;4938933;29;20047;-90
2023/10/02 04:55:42;;;;;;;6.68;2.40;;;14.30;95.90;;;;;;4907302;29;20103;-91
2023/10/02 04:58:19;;;;;;;5.35;2.00;;;14.30;95.60;;;;;;4922749;29;20044;-91
2023/10/02 05:03:31;;;;;;;4.95;2.08;;;14.30;95.60;;;;;;4939195;29;20111;-91
2023/10/02 05:05:59;;;;;;;6.32;1.85;;;14.30;95.60;;;;;;4922773;29;20086;-91
2023/10/02 05:11:23;;;;;;;5.78;1.98;;;14.30;95.60;;;;;;4938450;29;20048;-91
2023/10/02 05:16:34;;;;;;;4.43;2.00;;;14.20;95.60;;;;;;4938669;29;20059;-91
2023/10/02 05:19:04;;;;;;;5.20;2.15;;;14.20;95.60;;;;;;4923122;29;20040;-91
2023/10/02 05:21:50;;;;;;;6.22;2.20;;;14.20;95.60;;;;;;4907200;29;20605;-90
2023/10/02 05:24:19;;;;;;;6.45;1.92;;;14.20;95.60;;;;;;4922323;29;20134;-91
2023/10/02 05:26:49;;;;;;;5.93;2.67;;;14.20;95.70;;;;;;4907047;29;20051;-91
2023/10/02 05:29:41;;;;;;;6.15;1.98;;;14.20;95.60;;;;;;4922165;29;20055;-90
2023/10/02 05:32:23;;;;;;;5.32;2.10;;;14.20;95.60;;;;;;4923231;29;20491;-91
2023/10/02 05:37:52;;;;;;;4.43;1.40;;;14.20;95.60;;;;;;4933122;29;19922;-91
2023/10/02 05:45:39;;;;;;;5.10;1.98;;;14.20;95.60;;;;;;4922150;29;20055;-90
2023/10/02 05:48:27;;;;;;;5.30;1.73;;;14.20;95.60;;;;;;4922183;29;20046;-91
2023/10/02 05:50:59;;;;;;;6.20;2.45;;;14.30;95.60;;;;;;4906643;29;20047;-91
2023/10/02 05:53:32;;;;;;;5.47;1.75;;;14.20;95.50;;;;;;4906391;29;20139;-91
2023/10/02 05:58:41;;;;;;;3.88;1.45;;;14.30;95.60;;;;;;4921336;29;20050;-90
2023/10/02 06:01:23;;;;;;;5.25;2.28;;;14.30;95.50;;;;;;4921778;29;20043;-90
2023/10/02 06:03:57;;;;;;;4.43;1.60;;;14.30;95.80;;;;;;4921494;29;20043;-90
2023/10/02 06:06:31;;;;;;;5.13;2.00;;;14.30;95.50;;;;;;4906442;29;20119;-90
2023/10/02 06:09:03;;;;;;;4.57;1.63;;;14.30;95.50;;;;;;4905949;29;20071;-90
2023/10/02 06:11:33;;;;;;;6.70;2.13;;;14.30;95.50;;;;;;4906435;29;20128;-90
2023/10/02 06:14:13;;;;;;;4.43;1.83;;;14.40;95.50;;;;;;4906076;29;20047;-90
2023/10/02 06:16:42;;;;;;;5.57;2.10;;;14.40;95.50;;;;;;4907128;29;20074;-89
2023/10/02 06:19:13;;;;;;;5.32;1.75;;;14.40;95.50;;;;;;4909367;29;20043;-91
2023/10/02 06:21:45;;;;;;;6.40;2.43;;;14.40;95.50;;;;;;4926012;29;20050;-90
2023/10/02 06:24:16;;;;;;;8.27;2.28;;;14.50;95.40;;;;;;4925279;29;20071;-93
2023/10/02 06:26:58;;;;;;;6.40;2.13;;;14.50;95.70;;;;;;4925456;29;20051;-93
2023/10/02 06:29:29;;;;;;;4.63;1.85;;;14.60;95.40;;;;;;4924894;29;20055;-93
2023/10/02 06:32:05;;;;;;;5.90;2.22;;;14.70;95.40;;;;;;4927923;29;20059;-92
2023/10/02 06:34:39;;;;;;;5.82;2.10;;;14.70;95.30;;;;;;4906288;29;20047;-92
2023/10/02 06:37:33;;;;;;;5.25;2.00;;;14.80;95.30;;;;;;4921061;29;20043;-92
2023/10/02 06:40:04;;;;;;;4.97;1.88;;;14.90;95.20;;;;;;4921037;29;20043;-92
2023/10/02 06:42:48;;;;;;;5.05;2.13;;;14.90;95.20;;;;;;4905439;29;20095;-92
2023/10/02 06:45:18;;;;;;;5.93;2.20;;;15.00;95.10;;;;;;4921115;29;20048;-92
2023/10/02 06:47:46;;;;;;;6.78;2.33;;;15.10;95.10;;;;;;4905760;29;20283;-91
2023/10/02 06:50:32;;;;;;;4.47;2.20;;;15.20;95.10;;;;;;4921312;29;20086;-92
2023/10/02 06:53:07;;;;;;;5.80;1.83;;;15.20;95.00;;;;;;4921025;29;20698;-91
2023/10/02 06:55:35;;;;;;;5.90;2.35;;;15.40;95.30;;;;;;4905486;29;20146;-92
2023/10/02 06:58:02;;;;;;;6.50;1.95;;;15.40;94.90;;;;;;4905486;29;20052;-94
2023/10/02 07:03:39;;;;;;;5.32;2.08;;;15.60;94.80;;;;;;4946469;29;20048;-91
2023/10/02 07:06:10;;;;;;;5.55;2.00;;;15.70;94.80;;;;;;4930764;29;20048;-91
2023/10/02 07:08:39;;;;;;;5.97;1.92;;;15.80;94.70;;;;;;4924770;29;20110;-92
2023/10/02 07:11:11;;;;;;;7.28;2.60;;;15.90;94.60;;;;;;4935803;29;20055;-92
2023/10/02 07:13:51;;;;;;;6.57;2.88;;;16.00;94.60;;;;;;4951116;29;20055;-93
2023/10/02 07:16:22;;;;;;;6.63;2.50;;;16.20;94.50;;;;;;4951540;29;20066;-93
2023/10/02 07:18:53;;;;;;;8.25;3.03;;;16.30;94.40;;;;;;4952644;29;20043;-93
2023/10/02 07:21:49;;;;;;;;;;;;;;;;;;;;;
2023/10/02 07:24:27;;;;;;;6.93;2.45;;;16.70;94.30;;;;;;4933041;29;20067;-92
2023/10/02 07:27:28;;;;;;;5.95;2.38;;;16.80;94.20;;;;;;4949114;29;20040;-94
2023/10/02 07:30:02;;;;;;;7.13;2.78;;;17.00;94.10;;;;;;4935966;29;20067;-96
2023/10/02 07:32:39;;;;;;;9.05;3.35;;;17.10;94.10;;;;;;4922348;29;20048;-96
2023/10/02 07:35:21;;;;;;;8.48;2.78;;;17.20;94.00;;;;;;4920734;29;20047;-93
2023/10/02 07:37:58;;;;;;;11.60;3.40;;;17.20;94.00;;;;;;4936344;29;20055;-96
2023/10/02 07:40:49;;;;;;;7.60;2.75;;;17.30;94.00;;;;;;4930729;29;20437;-92
2023/10/02 07:43:22;;;;;;;6.78;2.80;;;17.40;94.00;;;;;;4924280;29;20134;-92
2023/10/02 07:46:06;;;;;;;7.80;3.10;;;17.50;93.90;;;;;;4941504;29;20078;-96
2023/10/02 07:48:38;;;;;;;6.03;2.22;;;17.70;93.90;;;;;;4922100;29;20044;-93
2023/10/02 07:51:11;;;;;;;8.18;3.38;;;17.80;93.80;;;;;;4904985;29;20048;-92
2023/10/02 07:53:44;;;;;;;7.72;3.13;;;17.90;93.80;;;;;;4920926;29;20044;-93
2023/10/02 07:56:32;;;;;;;9.05;3.30;;;18.00;93.70;;;;;;4934666;29;20050;-86
2023/10/02 07:59:01;;;;;;;;;;;18.10;93.60;;;;;;4914802;29;20052;-87
2023/10/02 08:01:42;;;;;;;8.43;2.85;;;18.10;93.60;;;;;;4919150;29;19922;-86
2023/10/02 08:04:47;;;;;;;6.47;2.50;;;18.20;93.60;;;;;;4910742;29;20051;-86
2023/10/02 08:07:21;;;;;;;7.13;2.95;;;18.40;93.40;;;;;;4912747;29;20082;-86
2023/10/02 08:10:10;;;;;;;6.88;2.50;;;18.50;93.50;;;;;;4935456;29;20167;-88
2023/10/02 08:12:54;;;;;;;7.78;3.22;;;18.50;93.40;;;;;;4906614;29;20053;-88
2023/10/02 08:15:32;;;;;;;8.75;3.10;;;18.60;93.40;;;;;;4938492;29;21339;-88
2023/10/02 08:18:03;;;;;;;9.20;3.00;;;18.60;93.30;;;;;;4911972;29;20130;-89
2023/10/02 08:20:36;;;;;;;7.47;2.97;;;18.70;93.30;;;;;;4919228;29;20063;-84
2023/10/02 08:23:24;;;;;;;7.90;3.30;;;18.70;93.30;;;;;;4919062;29;20130;-86
2023/10/02 08:26:02;;;;;;;8.15;3.30;;;18.80;93.20;;;;;;4913311;29;20412;-84
2023/10/02 08:28:36;;;;;;;8.40;3.30;;;18.80;93.20;;;;;;4938664;29;20048;-87
2023/10/02 08:31:03;;;;;;;7.73;3.03;;;18.80;93.20;;;;;;4938140;29;20048;-87
2023/10/02 08:33:31;;;;;;;9.15;3.33;;;18.90;93.20;;;;;;4916436;29;20307;-84
2023/10/02 08:36:19;;;;;;;7.97;3.10;;;19.00;93.20;;;;;;4946383;29;20086;-85
2023/10/02 08:38:50;;;;;;;8.73;2.92;;;19.10;93.10;;;;;;4904526;29;20480;-86
2023/10/02 08:41:44;;;;;;;8.40;3.55;;;19.20;93.10;;;;;;4941636;29;20043;-85
2023/10/02 08:44:14;;;;;;;11.38;4.95;;;19.30;93.00;;;;;;4942252;29;20485;-87
2023/10/02 08:46:44;;;;;;;9.48;4.00;;;19.30;92.80;;;;;;4936246;29;20115;-93
2023/10/02 08:49:16;;;;;;;10.80;4.30;;;19.40;92.80;;;;;;4930208;29;20138;-93
2023/10/02 08:51:49;;;;;;;;;;;19.50;92.80;;;;;;4945427;29;20048;-93
2023/10/02 08:54:27;;;;;;;11.35;5.38;;;19.50;92.70;;;;;;4967906;29;19922;-92
2023/10/02 08:57:06;;;;;;;12.30;5.32;;;19.60;92.60;;;;;;4949840;29;20078;-89
2023/10/02 08:59:40;;;;;;;12.93;5.53;;;19.70;92.50;;;;;;4925893;29;20051;-86
2023/10/02 09:02:16;;;;;;;12.05;5.43;;;19.80;92.40;;;;;;4939868;29;20054;-89
2023/10/02 09:04:53;;;;;;;10.23;4.18;;;19.80;92.40;;;;;;4941532;29;20098;-92
2023/10/02 09:08:15;;;;;;;10.70;4.80;;;19.90;92.40;;;;;;4948353;29;20553;-87
2023/10/02 09:10:24;;;;;;;;;;;20.00;92.30;;;;;;4928446;29;20048;-86
2023/10/02 09:13:20;;;;;;;14.88;4.57;;;20.00;92.30;;;;;;4917554;29;20400;-90
2023/10/02 09:15:53;;;;;;;8.68;4.63;;;20.10;92.20;;;;;;4918852;29;20529;-90
2023/10/02 09:18:34;;;;;;;10.48;3.85;;;20.10;92.10;;;;;;4921409;29;20154;-86
2023/10/02 09:21:15;;;;;;;10.88;4.05;;;20.20;92.10;;;;;;4941076;29;20043;-87
2023/10/02 09:24:00;;;;;;;12.32;5.18;;;20.20;92.00;;;;;;4966687;23;20154;-90
2023/10/02 09:26:32;;;;;;;11.60;5.45;;;20.30;92.00;;;;;;4931626;29;20494;-87
2023/10/02 09:29:12;;;;;;;11.68;4.57;;;20.30;92.30;;;;;;4927743;29;20171;-88
2023/10/02 09:31:41;;;;;;;9.30;4.80;;;20.30;92.00;;;;;;4912204;29;20046;-90
2023/10/02 09:34:28;;;;;;;10.25;4.72;;;20.40;92.00;;;;;;4921476;29;20103;-86
2023/10/02 09:37:26;;;;;;;11.43;5.10;;;20.40;92.10;;;;;;4914417;29;20051;-86
2023/10/02 09:40:15;;;;;;;9.13;4.57;;;20.40;91.80;;;;;;4907690;29;20142;-89
2023/10/02 09:43:05;;;;;;;10.57;4.25;;;20.50;91.80;;;;;;4915190;29;20051;-89
2023/10/02 09:45:37;;;;;;;9.50;4.75;;;20.50;91.80;;;;;;4921402;29;20040;-84
2023/10/02 09:48:06;;;;;;;9.02;4.10;;;20.60;91.80;;;;;;4917638;29;20155;-89
2023/10/02 09:50:47;;;;;;;13.23;5.32;;;20.60;91.70;;;;;;4896835;29;20044;-92
2023/10/02 09:53:25;;;;;;;12.00;5.30;;;20.60;91.50;;;;;;4926249;29;20051;-87
2023/10/02 09:56:06;;;;;;;12.70;6.22;;;20.60;91.50;;;;;;4930155;29;20051;-93
2023/10/02 09:59:15;;;;;;;12.48;5.32;;;20.60;91.40;;;;;;4907369;29;20146;-89
2023/10/02 10:08:16;;;;;;;12.75;5.68;;;20.70;91.30;;;;;;4920171;29;20135;-85
2023/10/02 10:10:52;;;;;;;12.90;4.88;;;20.60;91.30;;;;;;4936157;29;20086;-90
2023/10/02 10:13:35;;;;;;;11.60;4.60;;;20.70;91.30;;;;;;4908801;29;20083;-90
2023/10/02 10:16:20;;;;;;;13.07;5.60;;;20.80;91.20;;;;;;4890151;29;20044;-89
2023/10/02 10:19:26;;;;;;;13.90;5.53;;;20.90;91.00;;;;;;4902311;29;20048;-91
2023/10/02 10:21:58;;;;;;;9.30;3.88;;;21.00;91.00;;;;;;4901986;29;20080;-91
2023/10/02 10:24:36;;;;;;;7.82;3.55;;;21.10;91.00;;;;;;4921014;29;20047;-92
2023/10/02 10:27:03;;;;;;;9.52;3.95;;;21.30;90.90;;;;;;4936163;29;20055;-89
2023/10/02 10:29:41;;;;;;;10.90;4.90;;;21.30;90.80;;;;;;4905558;29;20051;-92
2023/10/02 10:32:23;;;;;;;11.95;5.78;;;21.40;90.70;;;;;;4921430;29;20043;-92
2023/10/02 10:35:24;;;;;;;;;;;;;;;;;;;;;
2023/10/02 10:41:14;;;;;;;8.40;3.30;;;21.40;90.80;;;;;;4921825;29;20138;-91
2023/10/02 10:43:59;;;;;;;9.40;3.78;;;21.50;90.70;;;;;;4940782;28;20055;-91
2023/10/02 10:46:32;;;;;;;7.18;3.50;;;21.70;90.60;;;;;;4922200;29;20048;-91
2023/10/02 10:49:19;;;;;;;8.52;3.25;;;21.70;90.50;;;;;;4923699;29;20053;-90
2023/10/02 10:51:55;;;;;;;9.30;4.00;;;21.80;90.50;;;;;;4923286;29;20052;-91
2023/10/02 10:54:25;;;;;;;8.77;4.07;;;21.90;90.40;;;;;;4899378;29;20054;-90
2023/10/02 10:57:19;;;;;;;9.90;5.13;;;21.90;90.40;;;;;;4904299;29;20139;-89
2023/10/02 11:00:23;;;;;;;11.65;4.53;;;21.90;90.30;;;;;;4928257;29;20074;-91
2023/10/02 11:03:26;;;;;;;10.02;5.13;;;22.00;90.30;;;;;;4941548;29;20043;-90
2023/10/02 11:06:01;;;;;;;11.48;4.85;;;22.10;90.10;;;;;;4955474;29;20051;-90
2023/10/02 11:08:30;;;;;;;9.90;4.82;;;22.10;90.10;;;;;;4939326;29;20078;-91
2023/10/02 11:11:06;;;;;;;9.25;4.20;;;22.10;90.10;;;;;;4937349;29;20056;-91
2023/10/02 11:13:51;;;;;;;10.38;4.72;;;22.20;90.10;;;;;;4920824;29;20051;-90
2023/10/02 11:16:36;;;;;;;8.80;4.07;;;22.20;90.10;;;;;;4927511;29;20059;-93
2023/10/02 11:19:21;;;;;;;7.63;3.67;;;22.30;90.00;;;;;;4902004;29;20068;-92
2023/10/02 11:22:15;;;;;;;8.25;3.45;;;22.30;90.10;;;;;;4902585;29;20044;-92
2023/10/02 11:25:17;;;;;;;7.65;3.60;;;22.30;90.10;;;;;;4902014;29;20055;-92
2023/10/02 11:28:04;;;;;;;8.75;3.53;;;22.30;90.10;;;;;;4913451;29;20040;-93
2023/10/02 11:30:34;;;;;;;9.38;4.25;;;22.30;90.20;;;;;;4914726;29;20048;-94
2023/10/02 11:33:07;;;;;;;9.57;3.92;;;22.30;90.10;;;;;;4901218;29;20063;-92
2023/10/02 11:35:38;;;;;;;7.47;3.22;;;22.40;90.10;;;;;;4886102;29;20135;-91
2023/10/02 11:38:09;;;;;;;;;;;22.50;90.00;;;;;;4892741;29;20052;-93
2023/10/02 11:40:38;;;;;;;7.13;2.90;;;22.50;90.00;;;;;;4893756;29;19986;-91
2023/10/02 11:43:05;;;;;;;7.40;3.30;;;22.50;90.00;;;;;;4887283;29;20048;-91
2023/10/02 11:45:36;;;;;;;9.88;3.40;;;22.60;89.90;;;;;;4895282;29;20142;-90
2023/10/02 11:48:09;;;;;;;8.55;3.70;;;22.60;89.70;;;;;;4887719;29;20048;-92
2023/10/02 11:50:38;;;;;;;9.65;3.85;;;22.60;89.60;;;;;;4886000;29;20132;-90
2023/10/02 11:53:05;;;;;;;7.97;3.17;;;22.60;89.50;;;;;;4901320;29;20052;-93
2023/10/02 11:55:33;;;;;;;9.13;3.95;;;22.60;89.60;;;;;;4885729;29;20052;-92
2023/10/02 11:58:00;;;;;;;7.20;3.30;;;22.70;89.60;;;;;;4907628;29;20066;-92
2023/10/02 12:00:31;;;;;;;8.25;3.80;;;22.70;89.60;;;;;;4904910;29;20048;-92
2023/10/02 12:02:59;;;;;;;7.07;2.80;;;22.70;89.60;;;;;;4892979;29;20047;-90
2023/10/02 12:05:30;;;;;;;6.40;2.92;;;22.80;89.60;;;;;;4892458;29;20482;-91
2023/10/02 12:07:59;;;;;;;7.75;2.90;;;22.90;89.50;;;;;;4921543;29;20044;-91
2023/10/02 12:10:27;;;;;;;7.35;2.90;;;23.00;89.30;;;;;;4908518;29;20052;-91
2023/10/02 12:12:55;;;;;;;9.40;4.03;;;23.10;89.10;;;;;;4896456;29;20135;-91
2023/10/02 12:15:22;;;;;;;8.15;3.30;;;23.30;88.80;;;;;;4874059;29;20036;-90
2023/10/02 12:17:49;;;;;;;7.45;3.40;;;23.40;88.50;;;;;;4895132;29;20052;-93
2023/10/02 12:20:22;;;;;;;6.93;3.33;;;23.50;88.40;;;;;;4896361;29;20047;-94
2023/10/02 12:22:53;;;;;;;9.10;3.22;;;23.50;88.30;;;;;;4917578;29;20043;-94
2023/10/02 12:25:21;;;;;;;6.68;2.97;;;23.60;88.30;;;;;;4911360;29;20054;-92
2023/10/02 12:27:52;;;;;;;8.63;3.20;;;23.60;88.00;;;;;;4923705;29;20050;-92
2023/10/02 12:30:25;;;;;;;12.00;4.47;;;23.70;87.90;;;;;;4923627;29;20051;-92
2023/10/02 12:32:56;;;;;;;9.70;4.38;;;23.70;87.50;;;;;;4931613;29;20529;-93
2023/10/02 12:35:24;;;;;;;12.23;5.53;;;23.60;87.40;;;;;;4905097;29;20052;-94
2023/10/02 12:37:53;;;;;;;11.57;5.15;;;23.60;87.40;;;;;;4904406;29;20055;-94
2023/10/02 12:40:31;;;;;;;12.90;5.03;;;23.60;87.00;;;;;;4936743;29;20047;-92
2023/10/02 12:43:01;;;;;;;11.32;4.60;;;23.60;87.10;;;;;;4913014;29;20102;-94
2023/10/02 12:45:35;;;;;;;9.90;4.50;;;23.60;87.10;;;;;;4916913;29;20047;-91
2023/10/02 12:48:06;;;;;;;8.40;3.97;;;23.60;87.40;;;;;;4923677;29;20044;-94
2023/10/02 12:50:40;;;;;;;10.70;4.40;;;23.50;87.30;;;;;;4946515;29;20051;-92
2023/10/02 12:53:18;;;;;;;10.45;4.07;;;23.50;87.60;;;;;;4901008;29;20063;-96
2023/10/02 12:55:47;;;;;;;9.65;4.03;;;23.50;87.70;;;;;;4895261;29;20083;-93
2023/10/02 12:58:14;;;;;;;8.45;3.55;;;23.50;87.90;;;;;;4903668;29;20079;-93
2023/10/02 13:00:42;;;;;;;9.18;4.50;;;23.50;88.00;;;;;;4903776;29;20048;-93
2023/10/02 13:03:10;;;;;;;9.40;4.20;;;23.50;88.10;;;;;;4921924;29;20474;-92
2023/10/02 13:05:37;;;;;;;7.25;4.00;;;23.60;88.10;;;;;;4910734;29;20043;-92
2023/10/02 13:08:07;;;;;;;8.75;3.50;;;23.60;88.20;;;;;;4925995;29;20490;-92
2023/10/02 13:10:34;;;;;;;7.05;3.20;;;23.60;88.20;;;;;;4910848;29;20051;-93
2023/10/02 13:13:05;;;;;;;8.00;3.30;;;23.60;88.30;;;;;;4925893;29;20151;-92
2023/10/02 13:15:34;;;;;;;7.78;3.85;;;23.60;88.20;;;;;;4928160;29;20054;-91
2023/10/02 13:18:02;;;;;;;9.27;3.88;;;23.60;88.20;;;;;;4910949;29;20135;-93
2023/10/02 13:20:33;;;;;;;9.00;3.80;;;23.70;88.10;;;;;;4919788;29;20067;-89
2023/10/02 13:23:01;;;;;;;10.55;4.03;;;23.80;88.00;;;;;;4928774;29;20060;-89
2023/10/02 13:25:31;;;;;;;9.35;3.85;;;23.70;88.00;;;;;;4919784;29;20059;-92
2023/10/02 13:27:59;;;;;;;7.65;3.60;;;23.80;88.10;;;;;;4922560;29;20083;-90
2023/10/02 13:30:30;;;;;;;7.40;3.88;;;23.70;88.20;;;;;;4923063;29;20820;-93
2023/10/02 13:32:59;;;;;;;8.93;4.10;;;23.70;88.30;;;;;;4912581;29;20111;-92
2023/10/02 13:35:27;;;;;;;7.60;3.60;;;23.70;88.40;;;;;;4907462;29;20082;-93
2023/10/02 13:37:56;;;;;;;9.32;3.95;;;23.60;88.40;;;;;;4941698;29;20074;-92
2023/10/02 13:40:31;;;;;;;9.32;4.50;;;23.60;88.60;;;;;;4940462;29;20055;-91
2023/10/02 13:42:59;;;;;;;8.98;4.28;;;23.60;88.50;;;;;;4925817;29;20054;-92
2023/10/02 13:45:27;;;;;;;9.25;3.55;;;23.60;88.50;;;;;;4922058;29;20130;-91
2023/10/02 13:47:57;;;;;;;11.70;5.10;;;23.70;88.40;;;;;;4923655;29;20044;-93
2023/10/02 13:50:25;;;;;;;9.15;3.50;;;23.60;88.40;;;;;;4914406;29;20050;-90
2023/10/02 13:53:01;;;;;;;7.95;3.65;;;23.70;88.40;;;;;;4903604;29;20048;-94
2023/10/02 13:55:33;;;;;;;9.88;3.83;;;23.60;88.40;;;;;;4905793;29;20052;-93
2023/10/02 13:58:06;;;;;;;9.38;4.00;;;23.60;88.40;;;;;;4935677;29;20032;-91
2023/10/02 14:00:39;;;;;;;9.80;3.63;;;23.70;88.50;;;;;;4939960;29;20047;-93
2023/10/02 14:03:10;;;;;;;9.30;4.20;;;23.70;88.50;;;;;;4959039;29;20027;-93
2023/10/02 14:05:39;;;;;;;8.50;3.37;;;23.70;88.60;;;;;;4928294;29;20047;-91
2023/10/02 14:08:07;;;;;;;9.45;3.35;;;23.70;88.60;;;;;;4951864;29;20295;-92
2023/10/02 14:10:39;;;;;;;9.75;4.07;;;23.60;88.60;;;;;;4926405;29;20079;-93
2023/10/02 14:13:08;;;;;;;7.95;3.47;;;23.70;88.60;;;;;;4923204;29;20111;-93
2023/10/02 14:15:38;;;;;;;9.77;3.92;;;23.70;88.60;;;;;;4919559;29;20052;-94
2023/10/02 14:18:09;;;;;;;10.55;3.83;;;23.70;88.50;;;;;;4886329;29;20119;-94
2023/10/02 14:20:38;;;;;;;7.72;3.40;;;23.70;88.50;;;;;;4922124;29;20047;-92
2023/10/02 14:23:06;;;;;;;7.32;3.47;;;23.70;88.50;;;;;;4922036;29;20095;-94
2023/10/02 14:25:40;;;;;;;6.55;3.38;;;23.80;88.50;;;;;;4923827;29;20079;-91
2023/10/02 14:28:14;;;;;;;8.25;4.30;;;23.80;88.50;;;;;;4906321;29;20118;-92